首页
METAR-TAF:

METAR-TAF

机场 :

朱諾, 阿拉斯加州, 美国

纬度: 58-21-17N, 经度: 134-34-34W, 海拔: 6米

当前天气观测

该预报发布于44分钟前的11:53 UTC
风速4节,风向
温度 9°C
湿度 100%
气压 1029 hPa
能見度: 16.1公里
少量云层高于5000英尺
散云层高于6000英尺
多云层高于12000英尺

METAR: PAJN 181153Z 08004KT 10SM FEW050 SCT060 BKN120 09/09 A3039 RMK AO2 SLP291 70005 T00940089 10111 20094 51008

时间: 04:37 (12:37 UTC)

预报

该预报发布于1小时和12分钟前的11:25 UTC
预报有效从18日的 12点(UTC)到 19日的 12点(UTC)
风速6节,风向
能見度: 10公里
少量云层高于6000英尺
多云层高于15000英尺
从 18日的 1800点(UTC)
风速6节,风向西转西南
能見度: 10公里
散云层高于4500英尺
多云层高于15000英尺
从 19日的 0300点(UTC)
风速5节,风向西转西北
能見度: 10公里
散云层高于18000英尺

TAF: PAJN 181125Z 1812/1912 08006KT P6SM FEW060 BKN150 FM181800 25006KT P6SM SCT045 BKN150 FM190300 30005KT P6SM SCT180

超过4000个机场的气象观测和天气预报(METAR&TAF报告)。

可查询的气象台以黄色和红色小点在地图上表示。

将鼠标移到小点上方,可查看气象台名称。

然后点击查看天气观测和预报。

如需切换地图:点击带黑十字的绿色按钮放大地图;点击带横线的绿色按钮缩小地图;或者点击绿色箭头查看邻近地区的地图。


METAR-TAF: